createdAt,value
2022-08-31T00:00:39.281Z,79.85
2022-08-31T00:03:41.657Z,79.93
2022-08-31T00:06:23.655Z,80.13
2022-08-31T00:09:07.599Z,80.10
2022-08-31T00:11:49.597Z,80.27
2022-08-31T00:14:33.437Z,80.26
2022-08-31T00:17:16.869Z,80.16
2022-08-31T00:19:58.704Z,80.23
2022-08-31T00:22:40.806Z,80.23
2022-08-31T00:25:22.761Z,80.45
2022-08-31T00:28:05.606Z,80.57
2022-08-31T00:30:49.465Z,80.54
2022-08-31T00:33:31.565Z,80.70
2022-08-31T00:36:14.484Z,80.76
2022-08-31T00:38:57.257Z,80.84
2022-08-31T00:41:39.869Z,81.01
2022-08-31T00:44:22.222Z,80.99
2022-08-31T00:47:04.892Z,81.08
2022-08-31T00:49:51.440Z,80.81
2022-08-31T00:52:38.166Z,81.09
2022-08-31T00:55:23.024Z,81.11
2022-08-31T00:58:09.277Z,80.91
2022-08-31T01:00:52.203Z,80.93
2022-08-31T01:03:34.228Z,80.92
2022-08-31T01:06:18.280Z,80.92
2022-08-31T01:09:02.959Z,80.88
2022-08-31T01:11:46.221Z,80.84
2022-08-31T01:14:28.161Z,80.98
2022-08-31T01:17:10.376Z,81.13
2022-08-31T01:20:11.880Z,81.22
2022-08-31T01:23:22.137Z,81.23
2022-08-31T01:26:06.490Z,81.46
2022-08-31T01:28:50.947Z,81.60
2022-08-31T01:31:44.330Z,81.85
2022-08-31T01:34:26.615Z,81.93
2022-08-31T01:37:08.818Z,82.04
2022-08-31T01:39:51.738Z,82.36
2022-08-31T01:42:34.352Z,82.36
2022-08-31T01:45:17.626Z,82.63
2022-08-31T01:48:00.194Z,82.62
2022-08-31T01:50:42.345Z,82.68
2022-08-31T01:53:25.619Z,82.69
2022-08-31T01:56:16.265Z,82.72
2022-08-31T01:58:59.770Z,82.91
2022-08-31T02:02:02.952Z,82.94
2022-08-31T02:04:45.052Z,83.09
2022-08-31T02:07:27.305Z,83.08
2022-08-31T02:10:10.172Z,83.22
2022-08-31T02:12:52.173Z,83.11
2022-08-31T02:15:44.408Z,83.41
2022-08-31T02:18:27.533Z,83.57
2022-08-31T02:21:10.555Z,83.74
2022-08-31T02:23:53.680Z,84.14
2022-08-31T02:26:35.781Z,84.19
2022-08-31T02:29:18.802Z,84.25
2022-08-31T02:32:00.903Z,84.34
2022-08-31T02:34:42.901Z,84.23
2022-08-31T02:37:25.000Z,84.32
2022-08-31T02:40:11.943Z,84.27
2022-08-31T02:42:55.858Z,84.17
2022-08-31T02:45:40.007Z,84.23
2022-08-31T02:48:26.355Z,84.24
2022-08-31T02:51:10.864Z,84.28
2022-08-31T02:53:52.964Z,84.33
2022-08-31T02:56:34.907Z,84.35
2022-08-31T02:59:17.882Z,84.59
2022-08-31T03:02:00.209Z,84.75
2022-08-31T03:04:42.390Z,84.78
2022-08-31T03:07:24.287Z,85.36
2022-08-31T03:10:09.238Z,85.51
2022-08-31T03:12:53.094Z,85.38
2022-08-31T03:15:35.127Z,85.46
2022-08-31T03:18:18.217Z,85.43
2022-08-31T03:21:00.425Z,85.38
2022-08-31T03:23:42.418Z,85.45
2022-08-31T03:26:24.724Z,85.36
2022-08-31T03:29:07.473Z,85.34
2022-08-31T03:32:10.025Z,85.78
2022-08-31T03:34:58.237Z,85.43
2022-08-31T03:37:40.163Z,85.49
2022-08-31T03:40:22.504Z,85.64
2022-08-31T03:43:05.386Z,85.62
2022-08-31T03:45:49.650Z,85.64
2022-08-31T03:48:32.453Z,85.71
2022-08-31T03:51:16.604Z,85.82
2022-08-31T03:53:58.601Z,85.80
2022-08-31T03:56:40.972Z,85.84
2022-08-31T03:59:22.904Z,85.84
2022-08-31T04:02:40.673Z,85.84
2022-08-31T04:05:44.276Z,85.72
2022-08-31T04:08:29.109Z,85.41
2022-08-31T04:11:37.195Z,85.42
2022-08-31T04:14:47.021Z,85.53
2022-08-31T04:18:01.325Z,85.45
2022-08-31T04:21:02.984Z,85.40
2022-08-31T04:23:44.880Z,85.34
2022-08-31T04:26:33.739Z,85.29
2022-08-31T04:29:15.941Z,85.28
2022-08-31T04:31:59.373Z,85.34
2022-08-31T04:34:41.297Z,85.21
2022-08-31T04:37:23.477Z,85.27
2022-08-31T04:40:07.440Z,85.33
2022-08-31T04:42:49.722Z,85.42
2022-08-31T04:45:33.384Z,85.64
2022-08-31T04:48:15.459Z,85.89
2022-08-31T04:51:05.751Z,86.00
2022-08-31T04:53:48.616Z,86.26
2022-08-31T04:56:33.640Z,86.22
2022-08-31T04:59:18.132Z,86.55
2022-08-31T05:02:16.809Z,86.35
2022-08-31T05:05:14.448Z,86.59
2022-08-31T05:07:58.086Z,86.67
2022-08-31T05:10:41.518Z,86.61
2022-08-31T05:13:24.469Z,86.79
2022-08-31T05:16:09.049Z,86.54
2022-08-31T05:18:51.918Z,86.62
2022-08-31T05:21:37.496Z,86.59
2022-08-31T05:24:22.901Z,86.32
2022-08-31T05:27:05.113Z,86.27
2022-08-31T05:29:48.255Z,86.17
2022-08-31T05:32:50.782Z,85.98
2022-08-31T05:35:35.389Z,85.68
2022-08-31T05:38:17.447Z,85.36
2022-08-31T05:40:59.338Z,85.37
2022-08-31T05:43:41.130Z,85.18
2022-08-31T05:46:23.497Z,84.81
2022-08-31T05:49:07.992Z,84.51
2022-08-31T05:51:50.609Z,84.56
2022-08-31T05:54:37.009Z,84.18
2022-08-31T05:57:21.457Z,83.86
2022-08-31T06:00:09.623Z,83.99
2022-08-31T06:02:54.777Z,83.42
2022-08-31T06:05:36.832Z,82.96
2022-08-31T06:08:20.049Z,83.08
2022-08-31T06:11:14.498Z,82.89
2022-08-31T06:13:59.419Z,82.19
2022-08-31T06:16:44.178Z,81.73
2022-08-31T06:19:27.655Z,79.86
2022-08-31T06:22:10.165Z,79.52
2022-08-31T06:24:52.777Z,78.73
2022-08-31T06:27:38.993Z,79.18
2022-08-31T06:30:23.400Z,76.98
2022-08-31T06:33:09.320Z,76.52
2022-08-31T06:36:09.135Z,75.78
2022-08-31T06:39:07.414Z,74.59
2022-08-31T06:42:00.730Z,74.09
2022-08-31T06:44:49.844Z,73.72
2022-08-31T06:47:33.889Z,74.20
2022-08-31T06:50:16.137Z,72.84
2022-08-31T06:52:58.092Z,72.23
2022-08-31T06:55:53.523Z,70.73
2022-08-31T06:58:54.650Z,71.12
2022-08-31T07:01:54.399Z,69.34
2022-08-31T07:04:46.601Z,68.47
2022-08-31T07:07:28.549Z,67.08
2022-08-31T07:10:11.009Z,66.87
2022-08-31T07:12:52.903Z,66.84
2022-08-31T07:15:34.798Z,65.48
2022-08-31T07:18:17.718Z,64.48
2022-08-31T07:21:17.345Z,63.86
2022-08-31T07:24:02.399Z,64.21
2022-08-31T07:26:50.132Z,63.83
2022-08-31T07:29:41.022Z,63.82
2022-08-31T07:32:26.316Z,62.23
2022-08-31T07:35:09.439Z,60.90
2022-08-31T07:38:29.944Z,60.22
2022-08-31T07:41:31.188Z,60.54
2022-08-31T07:44:15.132Z,60.81
2022-08-31T07:46:57.744Z,61.10
2022-08-31T07:49:44.760Z,60.49
2022-08-31T07:52:51.848Z,60.02
2022-08-31T07:55:56.987Z,59.94
2022-08-31T07:59:07.772Z,59.75
2022-08-31T08:01:56.194Z,57.80
2022-08-31T08:04:44.455Z,57.45
2022-08-31T08:08:00.378Z,56.84
2022-08-31T08:11:02.313Z,56.37
2022-08-31T08:13:56.087Z,55.40
2022-08-31T08:16:58.667Z,54.20
2022-08-31T08:19:50.496Z,54.35
2022-08-31T08:22:51.556Z,52.75
2022-08-31T08:25:47.567Z,52.28
2022-08-31T08:28:42.066Z,52.50
2022-08-31T08:31:29.419Z,51.57
2022-08-31T08:34:11.791Z,52.11
2022-08-31T08:36:53.787Z,52.46
2022-08-31T08:39:35.834Z,52.59
2022-08-31T08:42:27.922Z,50.94
2022-08-31T08:45:11.317Z,51.72
2022-08-31T08:47:55.340Z,51.53
2022-08-31T08:50:40.675Z,51.35
2022-08-31T08:53:26.096Z,50.59
2022-08-31T08:56:32.839Z,48.13
2022-08-31T08:59:19.827Z,49.70
2022-08-31T09:02:07.100Z,49.14
2022-08-31T09:05:14.562Z,49.58
2022-08-31T09:08:23.756Z,49.67
2022-08-31T09:11:18.605Z,46.66
2022-08-31T09:14:26.813Z,47.28
2022-08-31T09:17:37.343Z,46.53
2022-08-31T09:20:19.998Z,46.16
2022-08-31T09:23:07.315Z,47.52
2022-08-31T09:25:52.694Z,48.87
2022-08-31T09:28:57.319Z,48.42
2022-08-31T09:31:42.412Z,48.29
2022-08-31T09:34:41.715Z,46.33
2022-08-31T09:37:27.020Z,46.58
2022-08-31T09:40:23.384Z,46.60
2022-08-31T09:43:16.465Z,46.83
2022-08-31T09:46:07.763Z,46.73
2022-08-31T09:48:59.050Z,41.28
2022-08-31T09:51:40.889Z,42.93
2022-08-31T09:54:47.161Z,41.83
2022-08-31T09:57:56.918Z,41.05
2022-08-31T10:00:42.834Z,38.44
2022-08-31T10:03:31.903Z,37.18
2022-08-31T10:06:38.022Z,36.77
2022-08-31T10:09:29.937Z,35.59
2022-08-31T10:12:21.187Z,36.67
2022-08-31T10:15:24.966Z,37.16
2022-08-31T10:18:41.106Z,37.32
2022-08-31T10:21:56.372Z,38.19
2022-08-31T10:24:56.912Z,38.48
2022-08-31T10:27:43.204Z,38.73
2022-08-31T10:30:32.152Z,40.08
2022-08-31T10:33:19.868Z,38.30
2022-08-31T10:36:05.195Z,38.67
2022-08-31T10:38:51.353Z,38.93
2022-08-31T10:41:38.963Z,38.45
2022-08-31T10:44:39.513Z,37.36
2022-08-31T10:47:33.737Z,38.08
2022-08-31T10:50:46.722Z,36.26
2022-08-31T10:53:54.423Z,34.53
2022-08-31T10:56:54.239Z,33.86
2022-08-31T11:00:01.633Z,35.03
2022-08-31T11:03:11.038Z,33.65
2022-08-31T11:06:01.132Z,33.34
2022-08-31T11:08:58.314Z,32.88
2022-08-31T11:11:45.695Z,33.02
2022-08-31T11:14:50.068Z,34.01
2022-08-31T11:17:57.764Z,35.77
2022-08-31T11:21:04.438Z,36.71
2022-08-31T11:23:55.858Z,37.05
2022-08-31T11:26:51.085Z,37.90
2022-08-31T11:29:46.420Z,39.04
2022-08-31T11:32:49.797Z,39.79
2022-08-31T11:36:07.308Z,40.12
2022-08-31T11:39:33.897Z,39.70
2022-08-31T11:42:27.647Z,39.24
2022-08-31T11:45:31.590Z,37.87
2022-08-31T11:48:55.959Z,38.98
2022-08-31T11:51:41.926Z,38.35
2022-08-31T11:54:29.373Z,39.12
2022-08-31T11:57:16.285Z,38.59
2022-08-31T12:00:00.576Z,38.68
2022-08-31T12:02:52.348Z,38.09
2022-08-31T12:05:55.217Z,39.36
2022-08-31T12:08:52.626Z,40.33
2022-08-31T12:11:53.438Z,40.20
2022-08-31T12:15:19.697Z,39.78
2022-08-31T12:18:21.152Z,38.35
2022-08-31T12:21:47.816Z,39.45
2022-08-31T12:24:59.893Z,37.25
2022-08-31T12:28:08.311Z,37.73
2022-08-31T12:30:55.169Z,37.19
2022-08-31T12:33:46.961Z,36.63
2022-08-31T12:36:34.265Z,36.53
2022-08-31T12:39:21.625Z,36.42
2022-08-31T12:42:05.919Z,35.58
2022-08-31T12:44:52.593Z,36.71
2022-08-31T12:47:46.385Z,37.30
2022-08-31T12:51:07.926Z,37.17
2022-08-31T12:54:27.299Z,36.91
2022-08-31T12:57:35.424Z,36.88
2022-08-31T13:00:27.034Z,36.93
2022-08-31T13:03:26.132Z,35.52
2022-08-31T13:06:14.253Z,36.21
2022-08-31T13:08:59.550Z,36.58
2022-08-31T13:11:44.801Z,35.88
2022-08-31T13:14:30.713Z,35.24
2022-08-31T13:17:18.259Z,35.27
2022-08-31T13:20:01.676Z,35.20
2022-08-31T13:22:57.600Z,36.21
2022-08-31T13:25:39.750Z,36.37
2022-08-31T13:28:26.298Z,35.37
2022-08-31T13:31:11.976Z,35.25
2022-08-31T13:34:01.873Z,36.33
2022-08-31T13:36:53.797Z,36.59
2022-08-31T13:39:36.825Z,35.99
2022-08-31T13:42:32.299Z,37.02
2022-08-31T13:45:26.785Z,35.96
2022-08-31T13:48:20.197Z,35.80
2022-08-31T13:51:13.765Z,35.92
2022-08-31T13:53:55.569Z,36.54
2022-08-31T13:57:02.133Z,37.30
2022-08-31T13:59:44.131Z,37.72
2022-08-31T14:02:36.692Z,38.25
2022-08-31T14:05:36.462Z,38.47
2022-08-31T14:08:25.469Z,38.66
2022-08-31T14:11:16.102Z,39.15
2022-08-31T14:14:16.074Z,39.34
2022-08-31T14:17:08.580Z,39.95
2022-08-31T14:19:50.720Z,40.09
2022-08-31T14:22:35.520Z,39.86
2022-08-31T14:25:22.324Z,40.51
2022-08-31T14:28:05.570Z,41.70
2022-08-31T14:30:47.732Z,42.11
2022-08-31T14:33:29.700Z,41.95
2022-08-31T14:36:14.997Z,41.44
2022-08-31T14:38:59.148Z,41.92
2022-08-31T14:41:41.045Z,42.24
2022-08-31T14:44:30.208Z,42.49
2022-08-31T14:47:12.720Z,41.85
2022-08-31T14:49:57.012Z,41.81
2022-08-31T14:52:52.919Z,41.07
2022-08-31T14:55:34.891Z,40.35
2022-08-31T14:58:17.861Z,37.71
2022-08-31T15:01:02.880Z,36.15
2022-08-31T15:03:45.390Z,35.44
2022-08-31T15:06:27.742Z,36.34
2022-08-31T15:09:10.309Z,36.63
2022-08-31T15:11:52.511Z,37.06
2022-08-31T15:14:38.196Z,36.79
2022-08-31T15:17:24.915Z,37.30
2022-08-31T15:20:10.430Z,37.38
2022-08-31T15:22:52.499Z,36.92
2022-08-31T15:25:35.099Z,36.96
2022-08-31T15:28:18.748Z,37.47
2022-08-31T15:31:02.200Z,37.62
2022-08-31T15:33:49.472Z,37.62
2022-08-31T15:36:32.964Z,37.69
2022-08-31T15:39:15.241Z,38.04
2022-08-31T15:41:57.780Z,38.45
2022-08-31T15:44:41.318Z,38.52
2022-08-31T15:47:51.007Z,38.59
2022-08-31T15:50:36.194Z,38.66
2022-08-31T15:53:25.980Z,39.10
2022-08-31T15:56:09.711Z,38.92
2022-08-31T15:58:58.775Z,38.78
2022-08-31T16:01:40.749Z,38.76
2022-08-31T16:04:25.276Z,39.06
2022-08-31T16:07:08.250Z,39.95
2022-08-31T16:09:50.147Z,39.96
2022-08-31T16:12:32.860Z,40.53
2022-08-31T16:15:15.883Z,40.56
2022-08-31T16:17:57.867Z,40.67
2022-08-31T16:20:39.731Z,40.97
2022-08-31T16:23:21.672Z,40.59
2022-08-31T16:26:05.448Z,41.05
2022-08-31T16:28:47.409Z,41.38
2022-08-31T16:31:30.824Z,41.36
2022-08-31T16:34:13.965Z,40.88
2022-08-31T16:36:57.295Z,41.01
2022-08-31T16:39:44.659Z,41.62
2022-08-31T16:42:26.717Z,41.83
2022-08-31T16:45:10.774Z,41.90
2022-08-31T16:48:12.896Z,41.75
2022-08-31T16:50:54.831Z,41.95
2022-08-31T16:53:36.727Z,42.04
2022-08-31T16:56:20.704Z,41.94
2022-08-31T16:59:02.613Z,42.27
2022-08-31T17:01:46.136Z,42.63
2022-08-31T17:04:50.922Z,43.25
2022-08-31T17:07:30.986Z,43.98
2022-08-31T17:10:12.984Z,44.62
2022-08-31T17:12:55.802Z,45.35
2022-08-31T17:15:37.744Z,46.21
2022-08-31T17:18:25.122Z,47.08
2022-08-31T17:21:07.271Z,47.46
2022-08-31T17:23:51.409Z,47.95
2022-08-31T17:26:34.905Z,48.18
2022-08-31T17:29:18.587Z,48.35
2022-08-31T17:32:04.534Z,48.70
2022-08-31T17:34:51.355Z,48.79
2022-08-31T17:37:36.621Z,49.00
2022-08-31T17:40:18.988Z,49.25
2022-08-31T17:43:01.893Z,49.31
2022-08-31T17:45:43.688Z,49.34
2022-08-31T17:48:25.741Z,49.35
2022-08-31T17:51:17.287Z,49.60
2022-08-31T17:54:12.609Z,49.66
2022-08-31T17:56:56.212Z,50.07
2022-08-31T17:59:40.767Z,50.16
2022-08-31T18:02:27.757Z,50.24
2022-08-31T18:05:11.984Z,50.36
2022-08-31T18:07:54.339Z,50.60
2022-08-31T18:10:36.540Z,50.71
2022-08-31T18:13:24.395Z,50.69
2022-08-31T18:16:09.491Z,51.09
2022-08-31T18:18:51.607Z,51.13
2022-08-31T18:21:33.646Z,51.22
2022-08-31T18:24:15.789Z,51.22
2022-08-31T18:26:59.383Z,51.35
2022-08-31T18:29:42.818Z,51.40
2022-08-31T18:32:31.573Z,51.37
2022-08-31T18:35:17.813Z,51.48
2022-08-31T18:38:04.786Z,51.52
2022-08-31T18:41:10.743Z,51.68
2022-08-31T18:44:12.300Z,51.88
2022-08-31T18:46:58.261Z,52.03
2022-08-31T18:49:42.113Z,52.00
2022-08-31T18:52:26.312Z,52.16
2022-08-31T18:55:09.120Z,52.30
2022-08-31T18:57:51.507Z,52.28
2022-08-31T19:03:46.121Z,52.53
2022-08-31T19:06:30.937Z,52.67
2022-08-31T19:09:14.213Z,52.87
2022-08-31T19:12:02.562Z,52.86
2022-08-31T19:14:44.982Z,52.92
2022-08-31T19:17:27.272Z,52.90
2022-08-31T19:20:10.759Z,53.15
2022-08-31T19:22:53.932Z,53.34
2022-08-31T19:25:42.721Z,53.39
2022-08-31T19:28:24.892Z,53.44
2022-08-31T19:31:10.028Z,53.66
2022-08-31T19:33:57.350Z,53.86
2022-08-31T19:36:42.252Z,54.08
2022-08-31T19:39:28.049Z,54.14
2022-08-31T19:42:11.630Z,54.23
2022-08-31T19:45:22.696Z,54.45
2022-08-31T19:48:01.273Z,54.67
2022-08-31T19:50:43.629Z,54.83
2022-08-31T19:53:26.072Z,54.97
2022-08-31T19:56:10.785Z,55.24
2022-08-31T19:58:56.739Z,55.41
2022-08-31T20:01:41.852Z,55.58
2022-08-31T20:04:28.062Z,55.78
2022-08-31T20:07:11.076Z,55.96
2022-08-31T20:09:53.846Z,56.14
2022-08-31T20:12:36.253Z,56.28
2022-08-31T20:15:18.883Z,56.55
2022-08-31T20:18:01.173Z,56.69
2022-08-31T20:20:45.997Z,56.77
2022-08-31T20:23:30.595Z,56.88
2022-08-31T20:26:12.592Z,57.26
2022-08-31T20:28:58.153Z,57.06
2022-08-31T20:31:43.291Z,57.42
2022-08-31T20:34:28.174Z,57.67
2022-08-31T20:37:10.928Z,57.95
2022-08-31T20:39:53.754Z,57.99
2022-08-31T20:42:37.577Z,58.17
2022-08-31T20:45:19.687Z,58.46
2022-08-31T20:48:20.527Z,58.54
2022-08-31T20:51:16.499Z,58.76
2022-08-31T20:53:58.348Z,58.94
2022-08-31T20:56:40.550Z,59.19
2022-08-31T20:59:24.644Z,59.45
2022-08-31T21:02:07.789Z,59.68
2022-08-31T21:04:51.104Z,59.99
2022-08-31T21:07:36.428Z,60.10
2022-08-31T21:10:36.674Z,60.29
2022-08-31T21:13:19.329Z,60.58
2022-08-31T21:16:03.885Z,60.68
2022-08-31T21:18:49.484Z,60.82
2022-08-31T21:21:31.405Z,60.98
2022-08-31T21:24:18.112Z,61.31
2022-08-31T21:27:01.796Z,61.56
2022-08-31T21:29:50.710Z,61.81
2022-08-31T21:32:33.015Z,62.11
2022-08-31T21:35:15.591Z,62.22
2022-08-31T21:37:59.084Z,62.52
2022-08-31T21:40:50.501Z,62.74
2022-08-31T21:43:32.621Z,62.87
2022-08-31T21:46:17.989Z,63.11
2022-08-31T21:49:01.695Z,63.22
2022-08-31T21:51:46.151Z,63.39
2022-08-31T21:54:29.277Z,63.64
2022-08-31T21:57:13.016Z,64.18
2022-08-31T21:59:54.910Z,64.08
2022-08-31T22:02:36.831Z,64.27
2022-08-31T22:05:18.701Z,64.64
2022-08-31T22:08:01.827Z,64.73
2022-08-31T22:10:44.848Z,64.98
2022-08-31T22:13:26.847Z,65.07
2022-08-31T22:16:19.349Z,65.31
2022-08-31T22:19:02.795Z,65.59
2022-08-31T22:21:49.455Z,65.82
2022-08-31T22:24:33.981Z,66.02
2022-08-31T22:27:15.819Z,66.19
2022-08-31T22:29:57.678Z,66.19
2022-08-31T22:32:39.675Z,66.41
2022-08-31T22:35:22.187Z,66.37
2022-08-31T22:38:04.080Z,66.50
2022-08-31T22:40:50.324Z,66.55
2022-08-31T22:43:32.480Z,66.72
2022-08-31T22:46:19.282Z,66.78
2022-08-31T22:49:02.210Z,66.87
2022-08-31T22:51:48.606Z,67.04
2022-08-31T22:54:30.964Z,67.22
2022-08-31T22:57:12.919Z,67.03
2022-08-31T22:59:54.965Z,67.24
2022-08-31T23:02:45.419Z,67.34
2022-08-31T23:05:27.513Z,67.73
2022-08-31T23:08:11.260Z,68.05
2022-08-31T23:10:53.195Z,67.94
2022-08-31T23:13:55.732Z,68.20
2022-08-31T23:16:44.689Z,68.35
2022-08-31T23:19:35.492Z,68.59
2022-08-31T23:22:17.798Z,68.47
2022-08-31T23:25:05.223Z,68.73
2022-08-31T23:27:49.205Z,69.17
2022-08-31T23:30:31.166Z,69.13
2022-08-31T23:33:13.061Z,69.30
2022-08-31T23:35:56.390Z,69.28
2022-08-31T23:38:39.925Z,69.49
2022-08-31T23:41:30.216Z,69.47
2022-08-31T23:44:13.547Z,69.59
2022-08-31T23:46:55.443Z,69.83
2022-08-31T23:49:37.645Z,69.85
2022-08-31T23:52:22.715Z,69.95
2022-08-31T23:55:07.185Z,70.65
2022-08-31T23:57:50.203Z,70.42
